Wilton, AL (35187)

7:26 PM CDT on October 31, 2014 (GMT -0500)
Montevallo | Change Station
CLOSE
Current Station
Personal Weather Station
Location: Montevallo, AL
Elevation: 502 ft
Nearby Weather Stations

Elev 502 ft 33.04 °N, 86.88 °W | Updated 0 second ago

Overcast
Overcast
52.9 °F
Feels Like 52.9 °F
N
10.3
Wind Variable Wind from NNE
Gusts 12.3 mph

Today
High -- | Low -- °F
--% Chance of Precip.
Yesterday
High -- | Low -- °F
Precip. -- in
7:04 AM 5:56 PM
First Quarter, 60% visible
Pressure 30.04 in
Visibility 10.0 miles
Clouds Few 2600 ft
Mostly Cloudy 3100 ft
Mostly Cloudy 4100 ft
Dew Point 44 °F
Humidity 73%
Rainfall 0.00 in
Snow Depth Not available.
UV 0 out of 12
Pollen 1.90 out of 12
Air Quality Not available.
Flu Activity Not available.
SPECI KEET 010000Z AUTO 33013G20KT 10SM FEW026 BKN031 BKN041 12/08 A3004 RMK AO2 T01170078

More Conditions Fewer Conditions

Pressure 30.04 in
Visibility 10.0 miles
Clouds Few 2600 ft
Mostly Cloudy 3100 ft
Mostly Cloudy 4100 ft
Dew Point 44 °F
Humidity 73%
Rainfall 0.00 in
Snow Depth Not available.
UV 0 out of 12
Pollen 1.90 out of 12
Air Quality Not available.
Flu Activity Not available.
SPECI KEET 010000Z AUTO 33013G20KT 10SM FEW026 BKN031 BKN041 12/08 A3004 RMK AO2 T01170078

More Conditions Fewer Conditions

10-Day Weather Forecast

Almanac

Astronomy

Oct. 31, 2014 Rise Set
Actual Time
Civil Twilight
Nautical Twilight
Astronomical Twilight
Moon
Length of Visible Light
Length of Day
Tomorrow will be .
, % of the Moon is Illuminated

Today's Extremes

State Highs State Lows

Community

WunderPhotos

Upload Photos

1,766,792 photos uploaded!

WunderBlogs® & News

Nearby

Air Quality

  Air Quality AQ Index Pollutant
Not available.

Snow Depth

Station Depth Elevation

Earthquake Activity

City Distance Mag. Time & Date
Minimum magnitude displayed is 2.5.

Coastal Water Temperatures

Place Temperature

Nearby Weather Stations